Time;durP1;ratioP1;P1;durP2;ratioP2;P2;SDS_P1;SDS_P2;PMS_P1;PMS_P2;Temp;Humidity;BMP_temperature;BMP_pressure;BME280_temperature;BME280_humidity;BME280_pressure;Samples;Min_cycle;Max_cycle;Signal;HPM_P1;HPM_P2
2023/07/04 00:01:10;;;;;;;1999.90;999.90;;;19.60;99.90;;;;;;5034974;28;20025;-70
2023/07/04 00:03:37;;;;;;;1999.90;999.90;;;19.50;99.90;;;;;;5034355;28;20029;-70
2023/07/04 00:06:05;;;;;;;1999.90;999.90;;;19.50;99.90;;;;;;5035105;28;20029;-70
2023/07/04 00:08:35;;;;;;;1999.90;999.90;;;19.50;99.90;;;;;;5034370;28;20018;-70
2023/07/04 00:11:01;;;;;;;1999.90;999.90;;;19.50;99.90;;;;;;5034530;28;20041;-70
2023/07/04 00:13:28;;;;;;;1999.90;999.90;;;19.50;99.90;;;;;;5034633;28;20042;-70
2023/07/04 00:15:56;;;;;;;1999.90;999.90;;;19.60;99.90;;;;;;5034574;28;20029;-70
2023/07/04 00:18:24;;;;;;;1999.90;999.90;;;19.50;99.90;;;;;;5034309;28;20400;-70
2023/07/04 00:20:56;;;;;;;1999.90;999.90;;;19.50;99.90;;;;;;5034577;28;20080;-70
2023/07/04 00:23:31;;;;;;;1999.90;999.90;;;19.60;99.90;;;;;;5031875;28;20041;-70
2023/07/04 00:25:57;;;;;;;1999.90;999.90;;;19.60;99.90;;;;;;5034166;28;20075;-70
2023/07/04 00:28:24;;;;;;;1999.90;999.90;;;19.60;99.90;;;;;;5034596;28;20025;-70
2023/07/04 00:30:52;;;;;;;1999.90;999.90;;;19.60;99.90;;;;;;5034371;28;20029;-70
2023/07/04 00:33:24;;;;;;;1999.90;999.90;;;19.60;99.90;;;;;;5034452;28;20021;-70
2023/07/04 00:35:57;;;;;;;;;;;19.60;99.90;;;;;;5033701;28;20094;-70
2023/07/04 00:38:23;;;;;;;1999.90;999.90;;;19.50;99.90;;;;;;5034058;28;19909;-70
2023/07/04 00:40:50;;;;;;;1999.90;999.90;;;19.50;99.90;;;;;;5033941;28;20091;-70
2023/07/04 00:43:16;;;;;;;1999.90;999.90;;;19.50;99.90;;;;;;5034657;28;20029;-70
2023/07/04 00:45:43;;;;;;;1999.90;999.90;;;19.40;99.90;;;;;;5033963;28;20456;-70
2023/07/04 00:48:15;;;;;;;1999.90;999.90;;;19.40;99.90;;;;;;5032823;28;20038;-70
2023/07/04 00:50:46;;;;;;;1999.90;999.90;;;19.40;99.90;;;;;;5033199;28;20091;-70
2023/07/04 00:53:15;;;;;;;1999.90;999.90;;;19.40;99.90;;;;;;5034057;28;20032;-70
2023/07/04 00:55:45;;;;;;;1999.90;999.90;;;19.30;99.90;;;;;;5032921;28;20407;-70
2023/07/04 00:58:10;;;;;;;1999.90;999.90;;;19.30;99.90;;;;;;5034222;28;20457;-70
2023/07/04 01:00:37;;;;;;;1999.90;999.90;;;19.30;99.90;;;;;;5032982;28;20096;-70
2023/07/04 01:03:10;;;;;;;1999.90;999.90;;;19.30;99.90;;;;;;5030033;28;20442;-70
2023/07/04 01:05:54;;;;;;;1999.90;999.90;;;19.20;99.90;;;;;;5034119;28;20505;-70
2023/07/04 01:08:26;;;;;;;1999.90;999.90;;;19.20;99.90;;;;;;5033662;28;20029;-70
2023/07/04 01:10:53;;;;;;;1999.90;999.90;;;19.10;99.90;;;;;;5033529;28;20492;-70
2023/07/04 01:13:34;;;;;;;1999.90;999.90;;;19.10;99.90;;;;;;5033609;28;20037;-70
2023/07/04 01:16:11;;;;;;;1999.90;999.90;;;19.00;99.90;;;;;;5033399;28;20033;-70
2023/07/04 01:18:39;;;;;;;1999.90;999.90;;;19.00;99.90;;;;;;5033443;28;20109;-70
2023/07/04 01:21:07;;;;;;;1999.90;999.90;;;19.00;99.90;;;;;;5033039;28;20076;-70
2023/07/04 01:24:08;;;;;;;1999.90;999.90;;;19.00;99.90;;;;;;5030283;28;20083;-70
2023/07/04 01:26:42;;;;;;;1999.90;999.90;;;19.00;99.90;;;;;;5012820;28;20056;-70
2023/07/04 01:29:11;;;;;;;1999.90;999.90;;;19.00;99.90;;;;;;5013615;28;20105;-70
2023/07/04 01:31:37;;;;;;;1999.90;999.90;;;19.00;99.90;;;;;;5013564;28;20030;-70
2023/07/04 01:34:04;;;;;;;1999.90;999.90;;;19.00;99.90;;;;;;5012614;28;20022;-70
2023/07/04 01:36:34;;;;;;;1999.90;999.90;;;19.00;99.90;;;;;;5013359;28;20416;-70
2023/07/04 01:39:00;;;;;;;1999.90;999.90;;;18.90;99.90;;;;;;5013112;28;20049;-70
2023/07/04 01:41:26;;;;;;;1999.90;999.90;;;19.00;99.90;;;;;;5013268;28;20041;-70
2023/07/04 01:44:03;;;;;;;1999.90;999.90;;;18.90;99.90;;;;;;5013389;28;20397;-70
2023/07/04 01:46:29;;;;;;;1999.90;999.90;;;18.90;99.90;;;;;;5013390;28;20118;-70
2023/07/04 01:48:55;;;;;;;1999.90;999.90;;;18.80;99.90;;;;;;5012181;28;20102;-70
2023/07/04 01:51:36;;;;;;;1999.90;999.90;;;18.80;99.90;;;;;;5013042;28;20057;-70
2023/07/04 01:54:02;;;;;;;1999.90;999.90;;;18.70;99.90;;;;;;5012960;28;20049;-70
2023/07/04 01:56:29;;;;;;;1999.90;999.90;;;18.70;99.90;;;;;;5013149;28;20036;-70
2023/07/04 01:58:55;;;;;;;1999.90;999.90;;;18.60;99.90;;;;;;5013338;28;20117;-70
2023/07/04 02:01:21;;;;;;;1999.90;999.90;;;18.60;99.90;;;;;;5013021;28;20439;-70
2023/07/04 02:03:47;;;;;;;1999.90;999.90;;;18.50;99.90;;;;;;5027395;28;20128;-70
2023/07/04 02:06:14;;;;;;;1999.90;999.90;;;18.40;99.90;;;;;;5032558;28;20105;-70
2023/07/04 02:08:40;;;;;;;1999.90;999.90;;;18.40;99.90;;;;;;5036206;28;20056;-70
2023/07/04 02:11:06;;;;;;;1999.90;999.90;;;18.30;99.90;;;;;;5036860;28;20056;-70
2023/07/04 02:13:32;;;;;;;1999.90;999.90;;;18.30;99.90;;;;;;5036692;28;20088;-70
2023/07/04 02:15:57;;;;;;;1999.90;999.90;;;18.30;99.90;;;;;;5036258;28;20033;-70
2023/07/04 02:18:24;;;;;;;1999.90;999.90;;;18.20;99.90;;;;;;5036548;28;20030;-70
2023/07/04 02:20:50;;;;;;;1999.90;999.90;;;18.30;99.90;;;;;;5036593;28;20034;-69
2023/07/04 02:23:15;;;;;;;1999.90;999.90;;;18.30;99.90;;;;;;5036685;28;20100;-70
2023/07/04 02:25:41;;;;;;;1999.90;999.90;;;18.30;99.90;;;;;;5036207;28;20040;-70
2023/07/04 02:28:07;;;;;;;1999.90;999.90;;;18.30;99.90;;;;;;5036162;28;20591;-70
2023/07/04 02:30:33;;;;;;;1999.90;999.90;;;18.30;99.90;;;;;;5036226;28;20021;-70
2023/07/04 02:32:59;;;;;;;1999.90;999.90;;;18.30;99.90;;;;;;5036306;28;20030;-70
2023/07/04 02:35:24;;;;;;;1999.90;999.90;;;18.20;99.90;;;;;;5036327;28;20025;-70
2023/07/04 02:37:50;;;;;;;1999.90;999.90;;;18.20;99.90;;;;;;5036079;28;20044;-70
2023/07/04 02:40:16;;;;;;;1999.90;999.90;;;18.20;99.90;;;;;;5035914;28;20083;-70
2023/07/04 02:42:41;;;;;;;1999.90;999.90;;;18.30;99.90;;;;;;5035917;28;20030;-70
2023/07/04 02:45:08;;;;;;;1999.90;999.90;;;18.50;99.90;;;;;;5036174;28;20021;-70
2023/07/04 02:47:34;;;;;;;1999.90;999.90;;;18.60;99.90;;;;;;5035800;28;20116;-70
2023/07/04 02:50:00;;;;;;;1999.90;999.90;;;18.70;99.90;;;;;;5035156;28;20036;-70
2023/07/04 02:52:26;;;;;;;1999.90;999.90;;;18.70;99.90;;;;;;5035801;28;20104;-70
2023/07/04 02:54:52;;;;;;;1999.90;999.90;;;18.60;99.90;;;;;;5035962;28;20045;-70
2023/07/04 02:57:18;;;;;;;1999.90;999.90;;;18.50;99.90;;;;;;5035642;28;20036;-70
2023/07/04 02:59:44;;;;;;;1999.90;999.90;;;18.40;99.90;;;;;;5036545;28;20022;-70
2023/07/04 03:02:10;;;;;;;1999.90;999.90;;;18.30;99.90;;;;;;5035693;28;20025;-70
2023/07/04 03:04:36;;;;;;;1999.90;999.90;;;18.30;99.90;;;;;;5035448;28;20029;-70
2023/07/04 03:07:05;;;;;;;1999.90;999.90;;;18.20;99.90;;;;;;5035388;28;20076;-70
2023/07/04 03:09:31;;;;;;;1999.90;999.90;;;18.20;99.90;;;;;;5035801;28;20021;-70
2023/07/04 03:11:56;;;;;;;1999.90;999.90;;;18.20;99.90;;;;;;5035712;28;20175;-70
2023/07/04 03:14:23;;;;;;;1999.90;999.90;;;18.20;99.90;;;;;;5035311;28;20042;-70
2023/07/04 03:16:48;;;;;;;1999.90;999.90;;;18.10;99.90;;;;;;5030796;28;20496;-70
2023/07/04 03:19:15;;;;;;;1999.90;999.90;;;18.10;99.90;;;;;;5014598;28;20053;-70
2023/07/04 03:21:41;;;;;;;1999.90;999.90;;;18.10;99.90;;;;;;5015442;28;20022;-70
2023/07/04 03:24:06;;;;;;;1999.90;999.90;;;18.10;99.90;;;;;;5019944;28;20029;-70
2023/07/04 03:26:34;;;;;;;1999.90;999.90;;;18.00;99.90;;;;;;5035204;28;20439;-70
2023/07/04 03:29:03;;;;;;;1999.90;999.90;;;18.00;99.90;;;;;;5035680;28;20058;-70
2023/07/04 03:31:29;;;;;;;1999.90;999.90;;;18.00;99.90;;;;;;5035189;28;20021;-70
2023/07/04 03:33:55;;;;;;;1999.90;999.90;;;18.00;99.90;;;;;;5035253;28;20072;-70
2023/07/04 03:36:20;;;;;;;1999.90;999.90;;;18.00;99.90;;;;;;5034797;28;20464;-70
2023/07/04 03:38:46;;;;;;;1999.90;999.90;;;18.00;99.90;;;;;;5034830;28;20563;-70
2023/07/04 03:41:12;;;;;;;1999.90;999.90;;;17.80;99.90;;;;;;5035317;28;20037;-70
2023/07/04 03:43:38;;;;;;;1999.90;999.90;;;17.80;99.90;;;;;;5033825;28;20451;-70
2023/07/04 03:46:05;;;;;;;1999.90;999.90;;;17.70;99.90;;;;;;5034690;28;20108;-70
2023/07/04 03:48:31;;;;;;;1999.90;999.90;;;17.70;99.90;;;;;;5034587;28;20477;-70
2023/07/04 03:50:56;;;;;;;1999.90;999.90;;;17.50;99.90;;;;;;5033401;28;20100;-70
2023/07/04 03:53:22;;;;;;;1999.90;999.90;;;17.50;99.90;;;;;;5034711;28;20113;-70
2023/07/04 03:55:51;;;;;;;1999.90;999.90;;;17.50;99.90;;;;;;5034557;28;20052;-70
2023/07/04 03:58:17;;;;;;;1999.90;999.90;;;17.50;99.90;;;;;;5034581;28;20100;-70
2023/07/04 04:00:47;;;;;;;1999.90;999.90;;;17.50;99.90;;;;;;5034474;28;20029;-70
2023/07/04 04:03:12;;;;;;;1999.90;999.90;;;17.40;99.90;;;;;;5034411;28;20028;-70
2023/07/04 04:05:39;;;;;;;1999.90;999.90;;;17.40;99.90;;;;;;5034400;28;20026;-70
2023/07/04 04:08:04;;;;;;;1999.90;999.90;;;17.40;99.90;;;;;;5033806;28;20075;-70
2023/07/04 04:10:30;;;;;;;1999.90;999.90;;;17.40;99.90;;;;;;5034440;28;20101;-70
2023/07/04 04:12:56;;;;;;;1999.90;999.90;;;17.40;99.90;;;;;;5034144;28;20028;-70
2023/07/04 04:15:21;;;;;;;1999.90;999.90;;;17.40;99.90;;;;;;5034051;28;20108;-70
2023/07/04 04:17:47;;;;;;;1999.90;999.90;;;17.40;99.90;;;;;;5034509;28;20029;-70
2023/07/04 04:20:13;;;;;;;1999.90;999.90;;;17.30;99.90;;;;;;5034713;28;20032;-70
2023/07/04 04:22:43;;;;;;;1999.90;999.90;;;17.30;99.90;;;;;;5030936;28;20029;-70
2023/07/04 04:25:09;;;;;;;1999.90;999.90;;;17.40;99.90;;;;;;5034066;28;20032;-70
2023/07/04 04:27:35;;;;;;;1999.90;999.90;;;17.50;99.90;;;;;;5034124;28;20021;-70
2023/07/04 04:30:05;;;;;;;1999.90;999.90;;;17.50;99.90;;;;;;5034132;28;20104;-70
2023/07/04 04:32:31;;;;;;;1999.90;999.90;;;17.50;99.90;;;;;;5034172;28;20028;-70
2023/07/04 04:34:57;;;;;;;1999.90;999.90;;;17.60;99.90;;;;;;5033949;28;20096;-70
2023/07/04 04:37:23;;;;;;;1999.90;999.90;;;17.60;99.90;;;;;;5031102;28;20136;-70
2023/07/04 04:39:49;;;;;;;1999.90;999.90;;;17.50;99.90;;;;;;5033611;28;20104;-70
2023/07/04 04:42:14;;;;;;;1999.90;999.90;;;17.50;99.90;;;;;;5033975;28;20045;-70
2023/07/04 04:44:43;;;;;;;1999.90;999.90;;;17.50;99.90;;;;;;5033433;28;20484;-70
2023/07/04 04:47:09;;;;;;;1999.90;999.90;;;17.50;99.90;;;;;;5032661;28;20064;-70
2023/07/04 04:49:34;;;;;;;1999.90;999.90;;;17.50;99.90;;;;;;5033454;28;20053;-70
2023/07/04 04:52:00;;;;;;;1999.90;999.90;;;17.40;99.90;;;;;;5033032;28;20036;-70
2023/07/04 04:54:26;;;;;;;1999.90;999.90;;;17.50;99.90;;;;;;5033644;28;20032;-70
2023/07/04 04:56:51;;;;;;;1999.90;999.90;;;17.50;99.90;;;;;;5033413;28;20060;-70
2023/07/04 04:59:17;;;;;;;1999.90;999.90;;;17.60;99.90;;;;;;5033294;28;20025;-70
2023/07/04 05:01:43;;;;;;;1999.90;999.90;;;17.60;99.90;;;;;;5033327;28;20036;-70
2023/07/04 05:04:08;;;;;;;1999.90;999.90;;;17.70;99.90;;;;;;5033218;28;20113;-70
2023/07/04 05:06:34;;;;;;;1999.90;999.90;;;17.80;99.90;;;;;;5033437;28;20427;-70
2023/07/04 05:09:00;;;;;;;1999.90;999.90;;;17.90;99.90;;;;;;5033251;28;20036;-70
2023/07/04 05:11:25;;;;;;;1999.90;999.90;;;18.00;99.90;;;;;;5033269;28;20056;-70
2023/07/04 05:13:51;;;;;;;1999.90;999.90;;;18.10;99.90;;;;;;5033112;28;20045;-70
2023/07/04 05:16:19;;;;;;;1999.90;999.90;;;18.20;99.90;;;;;;5032767;28;20025;-70
2023/07/04 05:18:46;;;;;;;1999.90;999.90;;;18.30;99.90;;;;;;5033073;28;20025;-70
2023/07/04 05:21:15;;;;;;;1999.90;999.90;;;18.30;99.90;;;;;;5033127;28;20399;-70
2023/07/04 05:23:43;;;;;;;1999.90;999.90;;;18.40;99.90;;;;;;5032457;28;20049;-71
2023/07/04 05:26:18;;;;;;;1999.90;999.90;;;18.40;99.90;;;;;;5032776;28;20033;-70
2023/07/04 05:28:44;;;;;;;1999.90;999.90;;;18.40;99.90;;;;;;5031266;28;20029;-70
2023/07/04 05:31:12;;;;;;;1999.90;999.90;;;18.40;99.90;;;;;;5018060;28;20025;-70
2023/07/04 05:33:38;;;;;;;1999.90;999.90;;;18.60;99.90;;;;;;5052368;28;20017;-70
2023/07/04 05:36:18;;;;;;;1999.90;999.90;;;18.70;99.90;;;;;;5037687;28;20088;-70
2023/07/04 05:38:43;;;;;;;1999.90;999.90;;;18.80;99.90;;;;;;5032320;28;20026;-70
2023/07/04 05:41:12;;;;;;;1999.90;999.90;;;18.80;99.90;;;;;;5029465;28;20030;-70
2023/07/04 05:43:38;;;;;;;1999.90;999.90;;;18.90;99.90;;;;;;5024234;28;20094;-70
2023/07/04 05:46:05;;;;;;;1999.90;999.90;;;18.90;99.90;;;;;;5026414;28;20079;-71
2023/07/04 05:48:33;;;;;;;1999.90;999.90;;;19.00;99.90;;;;;;5020776;28;20082;-70
2023/07/04 05:51:02;;;;;;;1999.90;999.90;;;19.00;99.90;;;;;;5028441;28;20653;-70
2023/07/04 05:53:30;;;;;;;1999.90;999.90;;;19.00;99.90;;;;;;5020742;28;20034;-70
2023/07/04 05:56:18;;;;;;;1999.90;999.90;;;19.00;99.90;;;;;;5029418;28;20017;-70
2023/07/04 05:58:46;;;;;;;1999.90;999.90;;;18.90;99.90;;;;;;5012658;28;20034;-70
2023/07/04 06:01:25;;;;;;;1999.90;999.90;;;18.90;99.90;;;;;;5034574;28;20384;-70
2023/07/04 06:03:52;;;;;;;1999.90;999.90;;;19.00;99.90;;;;;;5031254;28;20105;-70
2023/07/04 06:06:33;;;;;;;1999.90;999.90;;;19.00;99.90;;;;;;5045841;28;20028;-70
2023/07/04 06:09:03;;;;;;;1999.90;999.90;;;19.00;99.90;;;;;;5014352;28;20076;-70
2023/07/04 06:11:34;;;;;;;1999.90;999.90;;;19.00;99.90;;;;;;5003319;28;20633;-70
2023/07/04 06:14:04;;;;;;;1999.90;999.90;;;19.00;99.90;;;;;;4999529;28;20563;-68
2023/07/04 06:16:30;;;;;;;1999.90;999.90;;;19.00;99.90;;;;;;5016145;28;20511;-70
2023/07/04 06:18:56;;;;;;;1999.90;999.90;;;19.00;99.90;;;;;;5004357;28;20074;-71
2023/07/04 06:21:24;;;;;;;1999.90;999.90;;;19.10;99.90;;;;;;5006228;28;20027;-70
2023/07/04 06:23:51;;;;;;;1999.90;999.90;;;19.20;99.90;;;;;;4992926;28;20034;-70
2023/07/04 06:26:17;;;;;;;1999.90;999.90;;;19.30;99.90;;;;;;5004574;28;20404;-70
2023/07/04 06:28:43;;;;;;;1999.90;999.90;;;19.40;99.90;;;;;;5006547;28;20132;-70
2023/07/04 06:31:15;;;;;;;1999.90;999.90;;;19.50;99.90;;;;;;5013946;28;20033;-70
2023/07/04 06:33:41;;;;;;;;;;;19.70;99.90;;;;;;4997319;28;20033;-71
2023/07/04 06:36:12;;;;;;;1999.90;999.90;;;19.70;99.90;;;;;;5006157;28;19909;-70
2023/07/04 06:38:38;;;;;;;1999.90;999.90;;;19.70;99.90;;;;;;4998458;28;20037;-70
2023/07/04 06:41:07;;;;;;;1999.90;999.90;;;19.80;99.90;;;;;;5016728;28;20033;-70
2023/07/04 06:43:34;;;;;;;1999.90;999.90;;;19.80;99.90;;;;;;5007869;28;20036;-70
2023/07/04 06:46:00;;;;;;;1999.90;999.90;;;19.90;99.90;;;;;;5005841;28;20044;-71
2023/07/04 06:48:27;;;;;;;1999.90;999.90;;;20.00;99.90;;;;;;5011923;28;20038;-70
2023/07/04 06:51:00;;;;;;;1999.90;999.90;;;20.00;99.90;;;;;;5026526;28;20024;-71
2023/07/04 06:53:26;;;;;;;1999.90;999.90;;;20.10;99.90;;;;;;5015288;28;20761;-70
2023/07/04 06:55:52;;;;;;;1999.90;999.90;;;20.10;99.90;;;;;;5029219;28;20814;-71
2023/07/04 06:58:17;;;;;;;1999.90;999.90;;;20.20;99.90;;;;;;5003629;28;20041;-70
2023/07/04 07:00:43;;;;;;;1999.90;999.90;;;20.20;99.90;;;;;;5003720;28;20805;-71
2023/07/04 07:03:09;;;;;;;1999.90;999.90;;;20.40;99.90;;;;;;5002210;28;20135;-70
2023/07/04 07:05:38;;;;;;;1999.90;999.90;;;20.30;99.90;;;;;;5019488;28;20080;-69
2023/07/04 07:08:04;;;;;;;1999.90;999.90;;;20.50;99.90;;;;;;5006017;28;20105;-69
2023/07/04 07:10:31;;;;;;;1999.90;999.90;;;20.60;99.90;;;;;;5010162;28;20041;-69
2023/07/04 07:12:58;;;;;;;1999.90;999.90;;;20.70;99.90;;;;;;5006617;28;20961;-69
2023/07/04 07:15:25;;;;;;;1999.90;999.90;;;21.00;99.90;;;;;;5007462;28;20030;-69
2023/07/04 07:17:50;;;;;;;1999.90;999.90;;;21.10;99.90;;;;;;5009709;28;20082;-69
2023/07/04 07:20:16;;;;;;;1999.90;999.90;;;21.00;99.90;;;;;;5008432;28;20925;-69
2023/07/04 07:22:41;;;;;;;1999.90;999.90;;;21.10;99.90;;;;;;5008956;28;20044;-69
2023/07/04 07:25:07;;;;;;;1999.90;999.90;;;21.00;99.90;;;;;;5010852;28;20128;-69
2023/07/04 07:27:33;;;;;;;1999.90;999.90;;;21.00;99.90;;;;;;5012860;28;20148;-69
2023/07/04 07:29:58;;;;;;;1999.90;999.90;;;21.40;99.90;;;;;;4997123;28;20029;-70
2023/07/04 07:32:24;;;;;;;1999.90;999.90;;;21.40;99.90;;;;;;5014650;28;20039;-70
2023/07/04 07:34:50;;;;;;;1999.90;999.90;;;21.60;99.90;;;;;;5016070;28;20522;-70
2023/07/04 07:37:15;;;;;;;1999.90;999.90;;;22.30;99.90;;;;;;5002630;28;20052;-70
2023/07/04 07:39:42;;;;;;;1999.90;999.90;;;24.30;99.90;;;;;;5005587;28;20533;-69
2023/07/04 07:42:08;;;;;;;1999.90;999.90;;;23.80;99.90;;;;;;4998767;28;20041;-69
2023/07/04 07:44:34;;;;;;;1999.90;999.90;;;24.00;99.90;;;;;;5001863;28;20780;-70
2023/07/04 07:47:00;;;;;;;1999.90;999.90;;;25.40;99.90;;;;;;5004740;28;20036;-70
2023/07/04 07:49:28;;;;;;;1999.90;999.90;;;24.60;99.90;;;;;;5004809;28;20026;-70
2023/07/04 07:51:54;;;;;;;1999.90;999.90;;;24.90;99.90;;;;;;5014808;28;20602;-70
2023/07/04 07:54:19;;;;;;;1999.90;999.90;;;25.30;99.90;;;;;;4997110;28;20075;-70
2023/07/04 07:56:45;;;;;;;1999.90;999.90;;;26.20;99.90;;;;;;4993437;28;20446;-70
2023/07/04 07:59:12;;;;;;;1999.90;999.90;;;26.10;99.90;;;;;;5001904;28;20025;-70
2023/07/04 08:01:38;;;;;;;1999.90;999.90;;;27.50;99.90;;;;;;5004276;28;20622;-71
2023/07/04 08:04:05;;;;;;;1999.90;999.90;;;28.40;99.90;;;;;;5005784;28;20033;-70
2023/07/04 08:06:42;;;;;;;1999.90;999.90;;;27.20;99.90;;;;;;5005330;28;20159;-69
2023/07/04 08:09:14;;;;;;;1999.90;999.90;;;26.10;99.90;;;;;;5002583;28;20030;-69
2023/07/04 08:11:40;;;;;;;1999.90;999.90;;;24.40;99.90;;;;;;4988892;28;20045;-70
2023/07/04 08:14:06;;;;;;;1999.90;999.90;;;23.40;99.90;;;;;;5006532;28;20037;-69
2023/07/04 08:16:42;;;;;;;1999.90;999.90;;;22.80;99.90;;;;;;5003914;28;20030;-69
2023/07/04 08:19:08;;;;;;;1999.90;999.90;;;22.80;99.90;;;;;;5005042;28;20435;-69
2023/07/04 08:21:34;;;;;;;1999.90;999.90;;;22.70;99.90;;;;;;5002707;28;20041;-69
2023/07/04 08:23:59;;;;;;;1999.90;999.90;;;22.80;99.90;;;;;;5004851;28;20152;-69
2023/07/04 08:26:26;;;;;;;1999.90;999.90;;;23.20;99.90;;;;;;5022318;28;20073;-70
2023/07/04 08:28:54;;;;;;;1999.90;999.90;;;22.90;99.90;;;;;;5002226;28;20569;-70
2023/07/04 08:31:20;;;;;;;1999.90;999.90;;;23.00;99.90;;;;;;4999901;28;20524;-69
2023/07/04 08:33:46;;;;;;;1999.90;999.90;;;22.50;99.90;;;;;;5001852;28;20362;-69
2023/07/04 08:36:12;;;;;;;1999.90;999.90;;;22.40;99.90;;;;;;5004074;28;20139;-69
2023/07/04 08:38:38;;;;;;;1999.90;999.90;;;22.20;99.90;;;;;;5005615;28;20052;-69
2023/07/04 08:41:29;;;;;;;1999.90;999.90;;;21.90;99.90;;;;;;5005596;28;20108;-69
2023/07/04 08:44:02;;;;;;;1999.90;999.90;;;21.50;99.90;;;;;;5017411;28;20141;-69
2023/07/04 08:46:35;;;;;;;1999.90;999.90;;;20.50;99.90;;;;;;5011389;28;20467;-69
2023/07/04 08:49:01;;;;;;;1999.90;999.90;;;20.30;99.90;;;;;;5004973;28;20419;-69
2023/07/04 08:51:34;;;;;;;1999.90;999.90;;;20.40;99.90;;;;;;5002929;28;20021;-68
2023/07/04 08:54:05;;;;;;;1999.90;999.90;;;20.40;99.90;;;;;;5000714;28;20946;-70
2023/07/04 08:56:34;;;;;;;1999.90;999.90;;;20.70;99.90;;;;;;5004308;28;20017;-68
2023/07/04 08:59:14;;;;;;;1999.90;999.90;;;20.60;99.90;;;;;;5005314;28;20571;-70
2023/07/04 09:02:06;;;;;;;1999.90;999.90;;;20.90;99.90;;;;;;5003803;28;20381;-71
2023/07/04 09:04:51;;;;;;;1999.90;999.90;;;20.50;99.90;;;;;;5003422;28;20533;-69
2023/07/04 09:08:04;;;;;;;1999.90;999.90;;;20.00;99.90;;;;;;5003833;28;20400;-71
2023/07/04 09:10:49;;;;;;;1999.90;999.90;;;20.00;99.90;;;;;;4979270;28;20718;-70
2023/07/04 09:13:35;;;;;;;1999.90;999.90;;;20.10;99.90;;;;;;4999633;28;20171;-69
2023/07/04 09:16:11;;;;;;;1999.90;999.90;;;19.90;99.90;;;;;;4993071;28;20033;-69
2023/07/04 09:18:59;;;;;;;1999.90;999.90;;;19.80;99.90;;;;;;5004222;28;20025;-70
2023/07/04 09:21:26;;;;;;;1999.90;999.90;;;19.90;99.90;;;;;;5004379;28;20627;-70
2023/07/04 09:23:55;;;;;;;1999.90;999.90;;;20.90;99.90;;;;;;5003164;28;20808;-69
2023/07/04 09:26:24;;;;;;;1999.90;999.90;;;23.80;99.90;;;;;;4997196;28;20456;-70
2023/07/04 09:28:51;;;;;;;1999.90;999.90;;;26.40;99.90;;;;;;5003907;28;20892;-70
2023/07/04 09:31:22;;;;;;;1999.90;999.90;;;28.00;99.90;;;;;;5002262;28;20546;-70
2023/07/04 09:33:52;;;;;;;1999.90;999.90;;;28.40;99.90;;;;;;5013893;28;20111;-69
2023/07/04 09:36:29;;;;;;;1999.90;999.90;;;29.90;99.90;;;;;;5004489;28;20562;-70
2023/07/04 09:39:04;;;;;;;1999.90;999.90;;;29.30;99.90;;;;;;5002124;28;20456;-72
2023/07/04 09:41:32;;;;;;;1999.90;999.90;;;30.30;99.90;;;;;;5019443;28;20915;-72
2023/07/04 09:44:19;;;;;;;1999.90;999.90;;;28.80;99.90;;;;;;5002133;28;20483;-71
2023/07/04 09:46:50;;;;;;;1999.90;999.90;;;25.80;99.90;;;;;;5001874;28;20543;-70
2023/07/04 09:49:18;;;;;;;1999.90;999.90;;;25.40;99.90;;;;;;5004111;28;20615;-69
2023/07/04 09:51:55;;;;;;;1999.90;999.90;;;25.10;99.90;;;;;;5004611;28;20124;-69
2023/07/04 09:54:21;;;;;;;1999.90;999.90;;;24.10;99.90;;;;;;5016515;28;20025;-70
2023/07/04 09:56:47;;;;;;;1999.90;999.90;;;23.40;99.90;;;;;;5004455;28;20024;-69
2023/07/04 09:59:24;;;;;;;1999.90;999.90;;;23.20;99.90;;;;;;5000679;28;20447;-69
2023/07/04 10:01:52;;;;;;;1999.90;999.90;;;26.50;99.90;;;;;;5000250;28;20041;-69
2023/07/04 10:04:24;;;;;;;1999.90;999.90;;;29.20;99.90;;;;;;5002674;28;20034;-70
2023/07/04 10:06:52;;;;;;;1999.90;999.90;;;29.10;99.90;;;;;;4993795;28;20029;-69
2023/07/04 10:09:20;;;;;;;1999.90;999.90;;;28.00;99.90;;;;;;5013908;28;20103;-69
2023/07/04 10:11:48;;;;;;;1999.90;999.90;;;29.60;99.90;;;;;;5004303;28;20125;-70
2023/07/04 10:14:15;;;;;;;1999.90;999.90;;;28.10;99.90;;;;;;5013251;28;20037;-70
2023/07/04 10:16:50;;;;;;;1999.90;999.90;;;26.60;99.90;;;;;;5001298;28;20052;-68
2023/07/04 10:19:19;;;;;;;1999.90;999.90;;;27.60;99.90;;;;;;5023601;28;20160;-69
2023/07/04 10:21:50;;;;;;;1999.90;999.90;;;27.40;99.90;;;;;;5010303;28;20366;-69
2023/07/04 10:24:18;;;;;;;1999.90;999.90;;;28.20;99.90;;;;;;5004972;28;20045;-70
2023/07/04 10:26:50;;;;;;;1999.90;999.90;;;28.60;99.90;;;;;;5004117;28;20805;-71
2023/07/04 10:29:19;;;;;;;1999.90;999.90;;;28.60;99.90;;;;;;5006862;28;20029;-69
2023/07/04 10:31:48;;;;;;;1999.90;999.90;;;27.80;99.90;;;;;;5000931;28;20132;-69
2023/07/04 10:34:18;;;;;;;1999.90;999.90;;;28.60;99.90;;;;;;5012503;28;20463;-70
2023/07/04 10:36:46;;;;;;;1999.90;999.90;;;28.70;99.90;;;;;;5007167;28;20197;-69
2023/07/04 10:39:15;;;;;;;1999.90;999.90;;;29.40;99.90;;;;;;5019969;28;20155;-69
2023/07/04 10:41:58;;;;;;;1999.90;999.90;;;29.90;99.90;;;;;;5022347;28;20064;-69
2023/07/04 10:44:26;;;;;;;1999.90;999.90;;;29.40;99.90;;;;;;5000531;28;20050;-69
2023/07/04 10:47:09;;;;;;;1999.90;999.90;;;29.80;99.90;;;;;;5003306;28;20536;-69
2023/07/04 10:49:42;;;;;;;1999.90;999.90;;;29.10;99.90;;;;;;5003882;28;20032;-72
2023/07/04 10:52:21;;;;;;;1999.90;999.90;;;29.20;99.90;;;;;;5001160;28;20439;-71
2023/07/04 10:54:47;;;;;;;1999.90;999.90;;;28.90;99.90;;;;;;5007142;28;20124;-69
2023/07/04 10:57:34;;;;;;;1999.90;999.90;;;28.60;99.90;;;;;;5003903;28;20037;-69
2023/07/04 11:00:09;;;;;;;1999.90;999.90;;;29.10;99.90;;;;;;5012341;28;20036;-69
2023/07/04 11:02:39;;;;;;;1999.90;999.90;;;29.80;99.90;;;;;;5001099;28;20032;-72
2023/07/04 11:05:35;;;;;;;1999.90;999.90;;;29.60;99.90;;;;;;4999278;28;20796;-73
2023/07/04 11:08:02;;;;;;;1999.90;999.90;;;29.90;99.90;;;;;;4999802;28;20026;-72
2023/07/04 11:10:32;;;;;;;1999.90;999.90;;;30.70;99.90;;;;;;5004624;28;20016;-75
2023/07/04 11:12:58;;;;;;;1999.90;999.90;;;29.80;99.90;;;;;;5008954;28;20037;-72
2023/07/04 11:15:29;;;;;;;1999.90;999.90;;;30.60;99.90;;;;;;4994288;28;20036;-73
2023/07/04 11:17:55;;;;;;;1999.90;999.90;;;30.10;99.90;;;;;;4994467;28;20092;-72
2023/07/04 11:20:27;;;;;;;1999.90;999.90;;;29.30;99.90;;;;;;5000974;28;20740;-72
2023/07/04 11:22:54;;;;;;;1999.90;999.90;;;28.50;99.90;;;;;;5012778;28;20696;-72
2023/07/04 11:25:41;;;;;;;1999.90;999.90;;;28.80;99.90;;;;;;5007504;28;20051;-71
2023/07/04 11:28:41;;;;;;;1999.90;999.90;;;28.70;99.90;;;;;;5014378;28;20043;-71
2023/07/04 11:31:27;;;;;;;1999.90;999.90;;;28.60;99.90;;;;;;5027181;28;20053;-72
2023/07/04 11:33:52;;;;;;;1999.90;999.90;;;28.60;99.90;;;;;;5023922;28;20032;-72
2023/07/04 11:36:35;;;;;;;1999.90;999.90;;;28.70;99.90;;;;;;5021767;28;20191;-72
2023/07/04 11:39:21;;;;;;;1999.90;999.90;;;28.70;99.90;;;;;;5020295;28;20740;-71
2023/07/04 11:41:49;;;;;;;1999.90;999.90;;;29.00;99.90;;;;;;5012592;28;20772;-74
2023/07/04 11:44:31;;;;;;;1999.90;999.90;;;29.20;99.90;;;;;;5005348;28;20064;-73
2023/07/04 11:47:01;;;;;;;1999.90;999.90;;;28.40;99.90;;;;;;5002351;28;20099;-72
2023/07/04 11:49:28;;;;;;;1999.90;999.90;;;28.40;99.90;;;;;;5003567;28;20909;-72
2023/07/04 11:52:19;;;;;;;1999.90;999.90;;;28.50;99.90;;;;;;5007157;28;20026;-71
2023/07/04 11:54:54;;;;;;;1999.90;999.90;;;28.30;99.90;;;;;;5015095;28;20343;-69
2023/07/04 11:57:23;;;;;;;1999.90;999.90;;;28.00;99.90;;;;;;5020361;28;20040;-71
2023/07/04 11:59:50;;;;;;;1999.90;999.90;;;28.10;99.90;;;;;;5006631;28;20563;-69
2023/07/04 12:02:30;;;;;;;1999.90;999.90;;;28.10;99.90;;;;;;5012237;28;20817;-69
2023/07/04 12:04:57;;;;;;;1999.90;999.90;;;28.20;99.90;;;;;;5006606;28;20344;-70
2023/07/04 12:07:48;;;;;;;1999.90;999.90;;;28.60;99.90;;;;;;5007951;28;20033;-69
2023/07/04 12:10:19;;;;;;;1999.90;999.90;;;27.90;99.90;;;;;;5000090;28;20212;-69
2023/07/04 12:12:46;;;;;;;1999.90;999.90;;;27.20;99.90;;;;;;5008376;28;20025;-68